createdAt,value
2023-01-07T03:04:11.887Z,81.64
2023-01-07T03:09:29.068Z,81.15
2023-01-07T05:54:06.630Z,86.52
2023-01-07T06:00:07.224Z,87.78
2023-01-07T07:57:28.130Z,87.90
2023-01-07T08:16:22.158Z,87.75
2023-01-07T08:21:47.040Z,87.88
2023-01-07T08:51:51.546Z,88.44
2023-01-07T09:35:44.907Z,86.25
2023-01-07T09:52:26.002Z,87.25
2023-01-07T09:57:51.612Z,87.18
2023-01-07T10:04:00.074Z,86.78
2023-01-07T10:09:33.603Z,87.13
2023-01-07T10:27:01.907Z,86.80
2023-01-07T10:32:26.413Z,86.04
2023-01-07T10:38:15.385Z,86.41
2023-01-07T10:45:03.945Z,85.04
2023-01-07T11:37:55.754Z,85.67
2023-01-07T11:43:47.626Z,86.10
2023-01-07T12:21:16.969Z,86.56
2023-01-07T12:33:57.902Z,85.10
2023-01-07T12:39:12.546Z,85.59
2023-01-07T12:44:45.650Z,86.37
2023-01-07T12:57:32.825Z,85.27
2023-01-07T13:02:53.040Z,86.57
2023-01-07T13:08:23.823Z,87.36
2023-01-07T13:15:00.371Z,86.88
2023-01-07T13:20:21.956Z,86.69
2023-01-07T13:32:34.176Z,86.91
2023-01-07T13:38:15.049Z,88.42
2023-01-07T13:43:46.039Z,89.09
2023-01-07T13:49:41.058Z,90.13
2023-01-07T13:55:59.211Z,89.99
2023-01-07T14:01:09.467Z,89.85
2023-01-07T14:06:44.448Z,90.25
2023-01-07T14:12:41.654Z,90.26
2023-01-07T14:18:00.039Z,90.69
2023-01-07T14:23:19.357Z,90.93
2023-01-07T14:28:54.651Z,90.02
2023-01-07T14:34:05.036Z,89.72
2023-01-07T14:39:37.154Z,89.95
2023-01-07T14:45:46.844Z,90.05
2023-01-07T14:51:49.820Z,90.21
2023-01-07T14:57:25.526Z,90.45
2023-01-07T15:03:12.757Z,89.99
2023-01-07T15:08:55.525Z,90.38
2023-01-07T15:14:49.741Z,90.14
2023-01-07T15:20:15.997Z,90.88
2023-01-07T15:26:06.145Z,90.12
2023-01-07T15:37:27.307Z,89.86
2023-01-07T15:42:47.019Z,89.93
2023-01-07T15:48:15.434Z,90.05
2023-01-07T15:53:22.435Z,90.33
2023-01-07T15:58:41.635Z,90.37
2023-01-07T16:04:04.951Z,90.58
2023-01-07T16:09:24.198Z,90.58
2023-01-07T16:14:55.461Z,90.77
2023-01-07T16:20:31.777Z,91.22
2023-01-07T16:25:55.417Z,90.89
2023-01-07T16:31:09.581Z,90.05
2023-01-07T16:36:31.467Z,89.32
2023-01-07T16:41:50.832Z,90.38
2023-01-07T16:47:20.813Z,90.57
2023-01-07T16:53:23.006Z,90.74
2023-01-07T16:58:16.433Z,89.40
2023-01-07T17:03:26.826Z,89.36
2023-01-07T17:08:37.174Z,90.02
2023-01-07T17:13:46.199Z,89.28
2023-01-07T17:19:05.662Z,89.22
2023-01-07T17:24:50.541Z,89.40
2023-01-07T17:29:56.930Z,89.47
2023-01-07T17:35:07.144Z,89.91
2023-01-07T17:40:32.474Z,89.48
2023-01-07T17:45:36.701Z,89.03
2023-01-07T17:50:51.861Z,89.43
2023-01-07T17:55:57.036Z,89.15
2023-01-07T18:01:12.278Z,89.61
2023-01-07T18:39:11.160Z,90.86
2023-01-07T18:44:16.354Z,91.11
2023-01-07T18:49:30.888Z,91.34
2023-01-07T18:54:46.901Z,91.09
2023-01-07T18:59:53.374Z,90.60
2023-01-07T19:05:00.742Z,90.83
2023-01-07T19:16:27.702Z,90.45
2023-01-07T19:21:49.116Z,90.62
2023-01-07T19:26:55.339Z,90.81
2023-01-07T19:32:10.761Z,90.22
2023-01-07T19:37:24.573Z,90.71
2023-01-07T19:42:30.166Z,90.40
2023-01-07T19:47:53.285Z,90.65
2023-01-07T19:53:13.591Z,90.48
2023-01-07T19:58:25.170Z,90.25
2023-01-07T20:04:01.833Z,90.23
2023-01-07T20:09:19.951Z,90.46
2023-01-07T20:14:42.200Z,90.35
2023-01-07T20:20:26.949Z,89.71
2023-01-07T20:31:46.086Z,89.34
2023-01-07T20:37:39.500Z,88.64
2023-01-07T20:43:34.078Z,88.22
2023-01-07T20:49:12.070Z,88.83
2023-01-07T20:54:26.044Z,88.94
2023-01-07T20:59:45.010Z,88.69
2023-01-07T21:11:05.543Z,88.29
2023-01-07T21:16:27.052Z,88.36
2023-01-07T21:21:45.763Z,88.35
2023-01-07T21:26:55.617Z,88.75
2023-01-07T21:32:04.624Z,89.13
2023-01-07T21:37:11.823Z,89.28
2023-01-07T21:42:20.087Z,89.08
2023-01-07T21:47:27.255Z,89.26
2023-01-07T21:53:06.296Z,89.36
2023-01-07T21:58:14.912Z,90.12
2023-01-07T22:03:33.964Z,89.64
2023-01-07T22:08:47.289Z,89.46
2023-01-07T22:14:04.542Z,89.40
2023-01-07T22:19:11.162Z,90.21
2023-01-07T22:24:52.222Z,89.77
2023-01-07T22:30:10.871Z,89.26
2023-01-07T22:35:16.448Z,89.29
2023-01-07T22:40:25.595Z,89.79
2023-01-07T22:45:43.551Z,89.56
2023-01-07T22:50:49.059Z,89.63
2023-01-07T22:55:56.240Z,89.29
2023-01-07T23:01:15.576Z,89.24
2023-01-07T23:06:20.717Z,88.97
2023-01-07T23:12:01.236Z,88.87
2023-01-07T23:23:11.020Z,88.39
2023-01-07T23:28:24.971Z,88.68
2023-01-07T23:33:33.034Z,88.84
2023-01-07T23:38:44.165Z,89.33
2023-01-07T23:44:22.584Z,89.73
2023-01-07T23:49:53.894Z,89.50
2023-01-07T23:55:25.216Z,89.44
